sensor_id;sensor_type;location;lat;lon;timestamp;P1;durP1;ratioP1;P2;durP2;ratioP2
35777;SDS011;21899;42.662;23.316;2024-03-17T00:02:11;30.40;;;17.60;;
35777;SDS011;21899;42.662;23.316;2024-03-17T00:04:37;33.67;;;17.25;;
35777;SDS011;21899;42.662;23.316;2024-03-17T00:07:02;31.23;;;16.58;;
35777;SDS011;21899;42.662;23.316;2024-03-17T00:09:28;29.08;;;16.42;;
35777;SDS011;21899;42.662;23.316;2024-03-17T00:11:54;28.40;;;14.45;;
35777;SDS011;21899;42.662;23.316;2024-03-17T00:14:20;28.15;;;15.98;;
35777;SDS011;21899;42.662;23.316;2024-03-17T00:16:47;28.75;;;16.25;;
35777;SDS011;21899;42.662;23.316;2024-03-17T00:19:13;29.27;;;15.68;;
35777;SDS011;21899;42.662;23.316;2024-03-17T00:21:39;23.67;;;17.02;;
35777;SDS011;21899;42.662;23.316;2024-03-17T00:24:05;30.27;;;17.90;;
35777;SDS011;21899;42.662;23.316;2024-03-17T00:26:31;32.67;;;16.77;;
35777;SDS011;21899;42.662;23.316;2024-03-17T00:28:56;27.38;;;17.33;;
35777;SDS011;21899;42.662;23.316;2024-03-17T00:31:22;30.77;;;14.95;;
35777;SDS011;21899;42.662;23.316;2024-03-17T00:33:51;32.63;;;17.75;;
35777;SDS011;21899;42.662;23.316;2024-03-17T00:36:17;32.25;;;16.80;;
35777;SDS011;21899;42.662;23.316;2024-03-17T00:38:43;25.48;;;15.48;;
35777;SDS011;21899;42.662;23.316;2024-03-17T00:41:09;31.23;;;16.75;;
35777;SDS011;21899;42.662;23.316;2024-03-17T00:43:34;28.75;;;17.73;;
35777;SDS011;21899;42.662;23.316;2024-03-17T00:46:00;30.80;;;17.10;;
35777;SDS011;21899;42.662;23.316;2024-03-17T00:48:25;25.95;;;14.07;;
35777;SDS011;21899;42.662;23.316;2024-03-17T00:50:54;34.75;;;16.83;;
35777;SDS011;21899;42.662;23.316;2024-03-17T00:53:20;31.92;;;17.70;;
35777;SDS011;21899;42.662;23.316;2024-03-17T00:55:50;29.23;;;15.57;;
35777;SDS011;21899;42.662;23.316;2024-03-17T00:58:26;34.15;;;16.95;;
35777;SDS011;21899;42.662;23.316;2024-03-17T01:00:51;31.75;;;17.17;;
35777;SDS011;21899;42.662;23.316;2024-03-17T01:03:17;31.83;;;16.25;;
35777;SDS011;21899;42.662;23.316;2024-03-17T01:05:43;26.73;;;15.85;;
35777;SDS011;21899;42.662;23.316;2024-03-17T01:08:13;27.05;;;15.90;;
35777;SDS011;21899;42.662;23.316;2024-03-17T01:10:42;27.92;;;16.05;;
35777;SDS011;21899;42.662;23.316;2024-03-17T01:13:08;27.15;;;15.50;;
35777;SDS011;21899;42.662;23.316;2024-03-17T01:15:38;26.98;;;15.85;;
35777;SDS011;21899;42.662;23.316;2024-03-17T01:18:04;31.08;;;17.75;;
35777;SDS011;21899;42.662;23.316;2024-03-17T01:20:31;30.50;;;16.85;;
35777;SDS011;21899;42.662;23.316;2024-03-17T01:22:57;29.60;;;16.00;;
35777;SDS011;21899;42.662;23.316;2024-03-17T01:25:22;30.90;;;15.68;;
35777;SDS011;21899;42.662;23.316;2024-03-17T01:27:50;31.05;;;16.75;;
35777;SDS011;21899;42.662;23.316;2024-03-17T01:30:16;28.20;;;16.88;;
35777;SDS011;21899;42.662;23.316;2024-03-17T01:32:42;34.22;;;18.95;;
35777;SDS011;21899;42.662;23.316;2024-03-17T01:35:07;35.63;;;18.75;;
35777;SDS011;21899;42.662;23.316;2024-03-17T01:37:33;30.83;;;16.70;;
35777;SDS011;21899;42.662;23.316;2024-03-17T01:39:59;27.80;;;16.27;;
35777;SDS011;21899;42.662;23.316;2024-03-17T01:42:24;26.75;;;16.02;;
35777;SDS011;21899;42.662;23.316;2024-03-17T01:44:50;28.67;;;15.90;;
35777;SDS011;21899;42.662;23.316;2024-03-17T01:47:16;31.73;;;16.77;;
35777;SDS011;21899;42.662;23.316;2024-03-17T01:49:44;26.75;;;16.73;;
35777;SDS011;21899;42.662;23.316;2024-03-17T01:52:13;26.80;;;15.85;;
35777;SDS011;21899;42.662;23.316;2024-03-17T01:54:40;26.95;;;16.35;;
35777;SDS011;21899;42.662;23.316;2024-03-17T01:57:06;30.65;;;17.05;;
35777;SDS011;21899;42.662;23.316;2024-03-17T01:59:32;29.20;;;16.83;;
35777;SDS011;21899;42.662;23.316;2024-03-17T02:01:58;31.17;;;16.08;;
35777;SDS011;21899;42.662;23.316;2024-03-17T02:04:25;30.20;;;17.33;;
35777;SDS011;21899;42.662;23.316;2024-03-17T02:06:50;32.35;;;16.70;;
35777;SDS011;21899;42.662;23.316;2024-03-17T02:09:16;32.13;;;18.10;;
35777;SDS011;21899;42.662;23.316;2024-03-17T02:11:43;33.88;;;17.70;;
35777;SDS011;21899;42.662;23.316;2024-03-17T02:14:09;30.13;;;17.38;;
35777;SDS011;21899;42.662;23.316;2024-03-17T02:16:36;35.95;;;18.35;;
35777;SDS011;21899;42.662;23.316;2024-03-17T02:19:01;30.42;;;16.98;;
35777;SDS011;21899;42.662;23.316;2024-03-17T02:21:27;32.55;;;17.23;;
35777;SDS011;21899;42.662;23.316;2024-03-17T02:23:53;32.88;;;18.75;;
35777;SDS011;21899;42.662;23.316;2024-03-17T02:26:19;36.05;;;17.10;;
35777;SDS011;21899;42.662;23.316;2024-03-17T02:28:45;33.38;;;17.20;;
35777;SDS011;21899;42.662;23.316;2024-03-17T02:31:12;30.55;;;16.75;;
35777;SDS011;21899;42.662;23.316;2024-03-17T02:33:38;28.88;;;16.23;;
35777;SDS011;21899;42.662;23.316;2024-03-17T02:36:04;30.58;;;16.52;;
35777;SDS011;21899;42.662;23.316;2024-03-17T02:38:35;31.52;;;17.70;;
35777;SDS011;21899;42.662;23.316;2024-03-17T02:41:20;29.55;;;17.05;;
35777;SDS011;21899;42.662;23.316;2024-03-17T02:43:46;28.60;;;16.50;;
35777;SDS011;21899;42.662;23.316;2024-03-17T02:46:12;28.00;;;15.77;;
35777;SDS011;21899;42.662;23.316;2024-03-17T02:48:42;29.50;;;16.52;;
35777;SDS011;21899;42.662;23.316;2024-03-17T02:51:14;29.73;;;16.60;;
35777;SDS011;21899;42.662;23.316;2024-03-17T02:53:44;30.83;;;17.98;;
35777;SDS011;21899;42.662;23.316;2024-03-17T02:56:10;35.38;;;17.88;;
35777;SDS011;21899;42.662;23.316;2024-03-17T02:58:37;32.95;;;18.48;;
35777;SDS011;21899;42.662;23.316;2024-03-17T03:01:04;29.38;;;17.27;;
35777;SDS011;21899;42.662;23.316;2024-03-17T03:03:32;32.70;;;18.40;;
35777;SDS011;21899;42.662;23.316;2024-03-17T03:05:58;32.92;;;17.90;;
35777;SDS011;21899;42.662;23.316;2024-03-17T03:08:34;31.58;;;17.85;;
35777;SDS011;21899;42.662;23.316;2024-03-17T03:11:03;30.35;;;16.35;;
35777;SDS011;21899;42.662;23.316;2024-03-17T03:13:31;28.50;;;17.63;;
35777;SDS011;21899;42.662;23.316;2024-03-17T03:15:57;32.50;;;17.17;;
35777;SDS011;21899;42.662;23.316;2024-03-17T03:18:22;29.35;;;17.63;;
35777;SDS011;21899;42.662;23.316;2024-03-17T03:20:51;29.80;;;16.83;;
35777;SDS011;21899;42.662;23.316;2024-03-17T03:23:18;34.38;;;19.08;;
35777;SDS011;21899;42.662;23.316;2024-03-17T03:25:44;33.65;;;17.55;;
35777;SDS011;21899;42.662;23.316;2024-03-17T03:28:09;34.15;;;19.38;;
35777;SDS011;21899;42.662;23.316;2024-03-17T03:30:38;32.03;;;17.33;;
35777;SDS011;21899;42.662;23.316;2024-03-17T03:33:04;33.38;;;17.10;;
35777;SDS011;21899;42.662;23.316;2024-03-17T03:35:30;27.55;;;15.25;;
35777;SDS011;21899;42.662;23.316;2024-03-17T03:37:56;35.60;;;18.40;;
35777;SDS011;21899;42.662;23.316;2024-03-17T03:40:22;33.15;;;17.42;;
35777;SDS011;21899;42.662;23.316;2024-03-17T03:42:47;29.05;;;16.40;;
35777;SDS011;21899;42.662;23.316;2024-03-17T03:45:13;30.02;;;15.88;;
35777;SDS011;21899;42.662;23.316;2024-03-17T03:47:39;30.40;;;17.48;;
35777;SDS011;21899;42.662;23.316;2024-03-17T03:50:08;32.72;;;18.67;;
35777;SDS011;21899;42.662;23.316;2024-03-17T03:52:35;32.70;;;16.95;;
35777;SDS011;21899;42.662;23.316;2024-03-17T03:57:32;31.75;;;16.48;;
35777;SDS011;21899;42.662;23.316;2024-03-17T04:00:01;30.20;;;16.15;;
35777;SDS011;21899;42.662;23.316;2024-03-17T04:02:40;34.88;;;18.27;;
35777;SDS011;21899;42.662;23.316;2024-03-17T04:05:07;33.67;;;17.70;;
35777;SDS011;21899;42.662;23.316;2024-03-17T04:07:33;29.20;;;16.92;;
35777;SDS011;21899;42.662;23.316;2024-03-17T04:10:00;35.03;;;18.58;;
35777;SDS011;21899;42.662;23.316;2024-03-17T04:12:26;27.33;;;15.63;;
35777;SDS011;21899;42.662;23.316;2024-03-17T04:14:53;32.33;;;17.13;;
35777;SDS011;21899;42.662;23.316;2024-03-17T04:17:21;32.05;;;18.58;;
35777;SDS011;21899;42.662;23.316;2024-03-17T04:19:51;33.60;;;17.60;;
35777;SDS011;21899;42.662;23.316;2024-03-17T04:22:17;30.63;;;16.95;;
35777;SDS011;21899;42.662;23.316;2024-03-17T04:24:44;40.47;;;18.90;;
35777;SDS011;21899;42.662;23.316;2024-03-17T04:27:10;29.55;;;17.42;;
35777;SDS011;21899;42.662;23.316;2024-03-17T04:29:36;30.73;;;16.88;;
35777;SDS011;21899;42.662;23.316;2024-03-17T04:32:02;32.00;;;18.20;;
35777;SDS011;21899;42.662;23.316;2024-03-17T04:34:30;32.80;;;17.88;;
35777;SDS011;21899;42.662;23.316;2024-03-17T04:36:56;36.03;;;18.05;;
35777;SDS011;21899;42.662;23.316;2024-03-17T04:39:22;29.55;;;18.10;;
35777;SDS011;21899;42.662;23.316;2024-03-17T04:41:48;36.65;;;19.45;;
35777;SDS011;21899;42.662;23.316;2024-03-17T04:44:15;32.80;;;16.75;;
35777;SDS011;21899;42.662;23.316;2024-03-17T04:46:40;29.83;;;16.58;;
35777;SDS011;21899;42.662;23.316;2024-03-17T04:49:06;33.72;;;18.27;;
35777;SDS011;21899;42.662;23.316;2024-03-17T04:51:31;28.13;;;15.73;;
35777;SDS011;21899;42.662;23.316;2024-03-17T04:54:00;32.90;;;17.35;;
35777;SDS011;21899;42.662;23.316;2024-03-17T04:56:31;32.80;;;17.73;;
35777;SDS011;21899;42.662;23.316;2024-03-17T04:58:56;29.65;;;16.15;;
35777;SDS011;21899;42.662;23.316;2024-03-17T05:01:22;35.15;;;17.50;;
35777;SDS011;21899;42.662;23.316;2024-03-17T05:03:48;31.73;;;16.58;;
35777;SDS011;21899;42.662;23.316;2024-03-17T05:06:16;30.23;;;16.02;;
35777;SDS011;21899;42.662;23.316;2024-03-17T05:08:42;34.85;;;18.00;;
35777;SDS011;21899;42.662;23.316;2024-03-17T05:11:08;32.38;;;18.27;;
35777;SDS011;21899;42.662;23.316;2024-03-17T05:13:34;30.73;;;16.88;;
35777;SDS011;21899;42.662;23.316;2024-03-17T05:16:01;27.55;;;16.30;;
35777;SDS011;21899;42.662;23.316;2024-03-17T05:18:28;30.90;;;15.88;;
35777;SDS011;21899;42.662;23.316;2024-03-17T05:21:01;33.67;;;17.05;;
35777;SDS011;21899;42.662;23.316;2024-03-17T05:23:29;28.60;;;16.67;;
35777;SDS011;21899;42.662;23.316;2024-03-17T05:25:56;29.30;;;15.70;;
35777;SDS011;21899;42.662;23.316;2024-03-17T05:28:23;28.95;;;15.52;;
35777;SDS011;21899;42.662;23.316;2024-03-17T05:30:50;32.20;;;16.23;;
35777;SDS011;21899;42.662;23.316;2024-03-17T05:33:19;30.08;;;17.65;;
35777;SDS011;21899;42.662;23.316;2024-03-17T05:35:56;27.23;;;15.73;;
35777;SDS011;21899;42.662;23.316;2024-03-17T05:38:23;25.48;;;15.82;;
35777;SDS011;21899;42.662;23.316;2024-03-17T05:40:59;29.45;;;15.60;;
35777;SDS011;21899;42.662;23.316;2024-03-17T05:43:30;30.23;;;16.00;;
35777;SDS011;21899;42.662;23.316;2024-03-17T05:46:03;26.70;;;14.95;;
35777;SDS011;21899;42.662;23.316;2024-03-17T05:48:33;27.67;;;16.48;;
35777;SDS011;21899;42.662;23.316;2024-03-17T05:51:06;29.52;;;17.00;;
35777;SDS011;21899;42.662;23.316;2024-03-17T05:53:32;30.70;;;17.50;;
35777;SDS011;21899;42.662;23.316;2024-03-17T05:55:59;33.72;;;17.17;;
35777;SDS011;21899;42.662;23.316;2024-03-17T05:58:25;33.38;;;17.65;;
35777;SDS011;21899;42.662;23.316;2024-03-17T06:00:51;29.92;;;17.00;;
35777;SDS011;21899;42.662;23.316;2024-03-17T06:03:16;29.15;;;16.90;;
35777;SDS011;21899;42.662;23.316;2024-03-17T06:05:42;26.88;;;16.52;;
35777;SDS011;21899;42.662;23.316;2024-03-17T06:08:11;27.63;;;14.23;;
35777;SDS011;21899;42.662;23.316;2024-03-17T06:10:37;27.63;;;15.32;;
35777;SDS011;21899;42.662;23.316;2024-03-17T06:13:07;27.45;;;14.85;;
35777;SDS011;21899;42.662;23.316;2024-03-17T06:15:37;27.73;;;15.30;;
35777;SDS011;21899;42.662;23.316;2024-03-17T06:18:03;25.17;;;13.40;;
35777;SDS011;21899;42.662;23.316;2024-03-17T06:20:28;25.58;;;13.73;;
35777;SDS011;21899;42.662;23.316;2024-03-17T06:22:54;25.13;;;14.38;;
35777;SDS011;21899;42.662;23.316;2024-03-17T06:25:20;18.33;;;12.88;;
35777;SDS011;21899;42.662;23.316;2024-03-17T06:27:49;19.95;;;12.27;;
35777;SDS011;21899;42.662;23.316;2024-03-17T06:30:17;21.30;;;12.70;;
35777;SDS011;21899;42.662;23.316;2024-03-17T06:32:44;17.80;;;11.75;;
35777;SDS011;21899;42.662;23.316;2024-03-17T06:35:11;20.23;;;12.23;;
35777;SDS011;21899;42.662;23.316;2024-03-17T06:37:37;19.60;;;11.32;;
35777;SDS011;21899;42.662;23.316;2024-03-17T06:40:03;20.48;;;13.30;;
35777;SDS011;21899;42.662;23.316;2024-03-17T06:42:30;25.25;;;13.77;;
35777;SDS011;21899;42.662;23.316;2024-03-17T06:44:56;23.05;;;14.57;;
35777;SDS011;21899;42.662;23.316;2024-03-17T06:47:22;27.00;;;14.15;;
35777;SDS011;21899;42.662;23.316;2024-03-17T06:49:48;24.25;;;14.85;;
35777;SDS011;21899;42.662;23.316;2024-03-17T06:52:13;23.73;;;14.18;;
35777;SDS011;21899;42.662;23.316;2024-03-17T06:54:39;21.90;;;13.68;;
35777;SDS011;21899;42.662;23.316;2024-03-17T06:57:04;24.48;;;15.05;;
35777;SDS011;21899;42.662;23.316;2024-03-17T06:59:32;26.25;;;14.70;;
35777;SDS011;21899;42.662;23.316;2024-03-17T07:01:58;28.08;;;16.02;;
35777;SDS011;21899;42.662;23.316;2024-03-17T07:04:24;25.13;;;14.27;;
35777;SDS011;21899;42.662;23.316;2024-03-17T07:06:49;27.60;;;14.73;;
35777;SDS011;21899;42.662;23.316;2024-03-17T07:09:15;27.60;;;15.55;;
35777;SDS011;21899;42.662;23.316;2024-03-17T07:11:42;23.83;;;14.32;;
35777;SDS011;21899;42.662;23.316;2024-03-17T07:14:09;20.42;;;13.25;;
35777;SDS011;21899;42.662;23.316;2024-03-17T07:16:34;25.13;;;15.25;;
35777;SDS011;21899;42.662;23.316;2024-03-17T07:19:01;22.90;;;14.05;;
35777;SDS011;21899;42.662;23.316;2024-03-17T07:21:27;24.15;;;13.98;;
35777;SDS011;21899;42.662;23.316;2024-03-17T07:23:52;26.77;;;16.10;;
35777;SDS011;21899;42.662;23.316;2024-03-17T07:26:18;25.77;;;13.30;;
35777;SDS011;21899;42.662;23.316;2024-03-17T07:28:43;29.80;;;15.10;;
35777;SDS011;21899;42.662;23.316;2024-03-17T07:31:10;24.45;;;13.52;;
35777;SDS011;21899;42.662;23.316;2024-03-17T07:33:36;21.63;;;12.63;;
35777;SDS011;21899;42.662;23.316;2024-03-17T07:36:02;19.73;;;13.60;;
35777;SDS011;21899;42.662;23.316;2024-03-17T07:38:30;21.33;;;12.68;;
35777;SDS011;21899;42.662;23.316;2024-03-17T07:40:57;20.08;;;14.88;;
35777;SDS011;21899;42.662;23.316;2024-03-17T07:43:33;27.10;;;14.80;;
35777;SDS011;21899;42.662;23.316;2024-03-17T07:48:41;23.92;;;14.25;;
35777;SDS011;21899;42.662;23.316;2024-03-17T07:51:09;24.50;;;16.30;;
35777;SDS011;21899;42.662;23.316;2024-03-17T07:53:40;21.80;;;14.02;;
35777;SDS011;21899;42.662;23.316;2024-03-17T07:56:07;23.15;;;13.88;;
35777;SDS011;21899;42.662;23.316;2024-03-17T08:01:06;27.00;;;15.18;;
35777;SDS011;21899;42.662;23.316;2024-03-17T08:03:37;22.65;;;12.82;;
35777;SDS011;21899;42.662;23.316;2024-03-17T08:06:04;25.48;;;13.77;;
35777;SDS011;21899;42.662;23.316;2024-03-17T08:08:31;25.65;;;14.73;;
35777;SDS011;21899;42.662;23.316;2024-03-17T08:10:57;22.83;;;13.65;;
35777;SDS011;21899;42.662;23.316;2024-03-17T08:13:24;19.40;;;11.50;;
35777;SDS011;21899;42.662;23.316;2024-03-17T08:16:00;21.83;;;13.25;;
35777;SDS011;21899;42.662;23.316;2024-03-17T08:18:27;18.45;;;11.18;;
35777;SDS011;21899;42.662;23.316;2024-03-17T08:20:53;19.48;;;11.85;;
35777;SDS011;21899;42.662;23.316;2024-03-17T08:23:19;21.83;;;12.82;;
35777;SDS011;21899;42.662;23.316;2024-03-17T08:25:55;19.42;;;11.75;;
35777;SDS011;21899;42.662;23.316;2024-03-17T08:28:22;19.40;;;11.35;;
35777;SDS011;21899;42.662;23.316;2024-03-17T08:30:58;20.75;;;11.32;;
35777;SDS011;21899;42.662;23.316;2024-03-17T08:33:28;17.92;;;12.10;;
35777;SDS011;21899;42.662;23.316;2024-03-17T08:35:56;24.23;;;11.57;;
35777;SDS011;21899;42.662;23.316;2024-03-17T08:38:23;17.40;;;10.73;;
35777;SDS011;21899;42.662;23.316;2024-03-17T08:40:52;17.67;;;11.45;;
35777;SDS011;21899;42.662;23.316;2024-03-17T08:43:19;15.43;;;11.23;;
35777;SDS011;21899;42.662;23.316;2024-03-17T08:45:54;19.90;;;11.32;;
35777;SDS011;21899;42.662;23.316;2024-03-17T08:48:21;18.10;;;12.27;;
35777;SDS011;21899;42.662;23.316;2024-03-17T08:50:50;18.48;;;11.85;;
35777;SDS011;21899;42.662;23.316;2024-03-17T08:53:17;24.10;;;12.85;;
35777;SDS011;21899;42.662;23.316;2024-03-17T08:55:42;22.00;;;12.52;;
35777;SDS011;21899;42.662;23.316;2024-03-17T08:58:09;23.75;;;14.57;;
35777;SDS011;21899;42.662;23.316;2024-03-17T09:00:35;21.05;;;13.57;;
35777;SDS011;21899;42.662;23.316;2024-03-17T09:03:02;22.38;;;14.32;;
35777;SDS011;21899;42.662;23.316;2024-03-17T09:05:28;24.90;;;14.05;;
35777;SDS011;21899;42.662;23.316;2024-03-17T09:07:53;23.10;;;13.63;;
35777;SDS011;21899;42.662;23.316;2024-03-17T09:10:20;24.50;;;14.88;;
35777;SDS011;21899;42.662;23.316;2024-03-17T09:12:46;23.10;;;14.68;;
35777;SDS011;21899;42.662;23.316;2024-03-17T09:15:12;21.83;;;13.48;;
35777;SDS011;21899;42.662;23.316;2024-03-17T09:17:38;24.25;;;15.02;;
35777;SDS011;21899;42.662;23.316;2024-03-17T09:20:05;25.10;;;15.65;;
35777;SDS011;21899;42.662;23.316;2024-03-17T09:22:36;17.58;;;11.38;;
35777;SDS011;21899;42.662;23.316;2024-03-17T09:25:05;17.33;;;12.07;;
35777;SDS011;21899;42.662;23.316;2024-03-17T09:27:32;21.42;;;10.38;;
35777;SDS011;21899;42.662;23.316;2024-03-17T09:29:59;15.90;;;10.05;;
35777;SDS011;21899;42.662;23.316;2024-03-17T09:32:25;19.48;;;11.18;;
35777;SDS011;21899;42.662;23.316;2024-03-17T09:37:26;20.75;;;10.27;;
35777;SDS011;21899;42.662;23.316;2024-03-17T09:39:52;19.40;;;10.60;;
35777;SDS011;21899;42.662;23.316;2024-03-17T09:42:18;14.43;;;9.35;;
35777;SDS011;21899;42.662;23.316;2024-03-17T09:44:47;13.75;;;8.43;;
35777;SDS011;21899;42.662;23.316;2024-03-17T09:47:20;18.42;;;8.32;;
35777;SDS011;21899;42.662;23.316;2024-03-17T09:49:46;16.85;;;8.20;;
35777;SDS011;21899;42.662;23.316;2024-03-17T09:52:22;10.70;;;7.32;;
35777;SDS011;21899;42.662;23.316;2024-03-17T09:54:52;13.93;;;7.90;;
35777;SDS011;21899;42.662;23.316;2024-03-17T09:57:23;7.78;;;6.25;;
35777;SDS011;21899;42.662;23.316;2024-03-17T09:59:52;7.65;;;5.65;;
35777;SDS011;21899;42.662;23.316;2024-03-17T10:02:19;8.80;;;6.00;;
35777;SDS011;21899;42.662;23.316;2024-03-17T10:04:45;8.18;;;5.25;;
35777;SDS011;21899;42.662;23.316;2024-03-17T10:07:11;5.40;;;4.32;;
35777;SDS011;21899;42.662;23.316;2024-03-17T10:09:36;6.35;;;4.43;;
35777;SDS011;21899;42.662;23.316;2024-03-17T10:12:02;7.70;;;4.53;;
35777;SDS011;21899;42.662;23.316;2024-03-17T10:14:28;8.05;;;5.28;;
35777;SDS011;21899;42.662;23.316;2024-03-17T10:16:53;6.93;;;5.40;;
35777;SDS011;21899;42.662;23.316;2024-03-17T10:19:23;7.72;;;5.35;;
35777;SDS011;21899;42.662;23.316;2024-03-17T10:21:50;6.55;;;4.97;;
35777;SDS011;21899;42.662;23.316;2024-03-17T10:24:23;6.82;;;4.63;;
35777;SDS011;21899;42.662;23.316;2024-03-17T10:26:54;6.97;;;5.38;;
35777;SDS011;21899;42.662;23.316;2024-03-17T10:29:22;7.78;;;5.03;;
35777;SDS011;21899;42.662;23.316;2024-03-17T10:31:56;5.80;;;4.68;;
35777;SDS011;21899;42.662;23.316;2024-03-17T10:34:28;5.85;;;4.18;;
35777;SDS011;21899;42.662;23.316;2024-03-17T10:37:16;6.57;;;4.85;;
35777;SDS011;21899;42.662;23.316;2024-03-17T10:39:50;6.25;;;4.93;;
35777;SDS011;21899;42.662;23.316;2024-03-17T10:42:22;5.63;;;4.20;;
35777;SDS011;21899;42.662;23.316;2024-03-17T10:44:50;5.05;;;3.92;;
35777;SDS011;21899;42.662;23.316;2024-03-17T10:47:26;5.13;;;3.95;;
35777;SDS011;21899;42.662;23.316;2024-03-17T10:49:54;6.70;;;4.28;;
35777;SDS011;21899;42.662;23.316;2024-03-17T10:52:21;2.83;;;2.40;;
35777;SDS011;21899;42.662;23.316;2024-03-17T10:54:51;2.88;;;2.05;;
35777;SDS011;21899;42.662;23.316;2024-03-17T10:57:31;4.43;;;3.03;;
35777;SDS011;21899;42.662;23.316;2024-03-17T11:00:04;5.70;;;3.88;;
35777;SDS011;21899;42.662;23.316;2024-03-17T11:02:33;5.82;;;3.67;;
35777;SDS011;21899;42.662;23.316;2024-03-17T11:05:02;3.35;;;3.03;;
35777;SDS011;21899;42.662;23.316;2024-03-17T11:07:30;4.63;;;2.90;;
35777;SDS011;21899;42.662;23.316;2024-03-17T11:09:57;4.93;;;3.55;;
35777;SDS011;21899;42.662;23.316;2024-03-17T11:17:49;5.78;;;4.25;;
35777;SDS011;21899;42.662;23.316;2024-03-17T11:22:55;6.22;;;4.70;;
35777;SDS011;21899;42.662;23.316;2024-03-17T11:27:51;6.10;;;4.93;;
35777;SDS011;21899;42.662;23.316;2024-03-17T11:38:58;4.93;;;3.75;;
35777;SDS011;21899;42.662;23.316;2024-03-17T11:47:02;4.18;;;3.65;;
35777;SDS011;21899;42.662;23.316;2024-03-17T11:51:56;5.53;;;4.13;;
35777;SDS011;21899;42.662;23.316;2024-03-17T11:54:23;5.05;;;3.65;;
35777;SDS011;21899;42.662;23.316;2024-03-17T11:56:52;4.20;;;3.22;;
35777;SDS011;21899;42.662;23.316;2024-03-17T11:59:18;6.68;;;3.70;;
35777;SDS011;21899;42.662;23.316;2024-03-17T12:01:45;5.63;;;4.30;;
35777;SDS011;21899;42.662;23.316;2024-03-17T12:04:13;5.32;;;3.90;;
35777;SDS011;21899;42.662;23.316;2024-03-17T12:06:41;4.90;;;3.40;;
35777;SDS011;21899;42.662;23.316;2024-03-17T12:09:19;5.38;;;3.97;;
35777;SDS011;21899;42.662;23.316;2024-03-17T12:11:47;7.35;;;4.53;;
35777;SDS011;21899;42.662;23.316;2024-03-17T12:14:34;5.25;;;4.00;;
35777;SDS011;21899;42.662;23.316;2024-03-17T12:19:32;6.03;;;3.67;;
35777;SDS011;21899;42.662;23.316;2024-03-17T12:21:58;6.47;;;4.15;;
35777;SDS011;21899;42.662;23.316;2024-03-17T12:24:29;5.45;;;4.60;;
35777;SDS011;21899;42.662;23.316;2024-03-17T12:27:00;5.43;;;4.25;;
35777;SDS011;21899;42.662;23.316;2024-03-17T12:34:32;4.90;;;3.70;;
35777;SDS011;21899;42.662;23.316;2024-03-17T12:37:01;6.10;;;5.22;;
35777;SDS011;21899;42.662;23.316;2024-03-17T12:39:28;6.15;;;4.20;;
35777;SDS011;21899;42.662;23.316;2024-03-17T12:44:29;5.80;;;4.82;;
35777;SDS011;21899;42.662;23.316;2024-03-17T12:47:01;5.30;;;4.20;;
35777;SDS011;21899;42.662;23.316;2024-03-17T12:49:28;6.07;;;4.00;;
35777;SDS011;21899;42.662;23.316;2024-03-17T12:51:55;4.80;;;3.70;;
35777;SDS011;21899;42.662;23.316;2024-03-17T12:54:21;8.40;;;4.43;;
35777;SDS011;21899;42.662;23.316;2024-03-17T12:56:49;6.28;;;5.05;;
35777;SDS011;21899;42.662;23.316;2024-03-17T12:59:41;6.95;;;5.00;;
35777;SDS011;21899;42.662;23.316;2024-03-17T13:02:26;5.75;;;4.45;;
35777;SDS011;21899;42.662;23.316;2024-03-17T13:07:43;8.93;;;5.93;;
35777;SDS011;21899;42.662;23.316;2024-03-17T13:10:12;7.70;;;5.88;;
35777;SDS011;21899;42.662;23.316;2024-03-17T13:12:38;7.28;;;4.80;;
35777;SDS011;21899;42.662;23.316;2024-03-17T13:15:04;10.05;;;4.75;;
35777;SDS011;21899;42.662;23.316;2024-03-17T13:17:30;6.80;;;5.03;;
35777;SDS011;21899;42.662;23.316;2024-03-17T13:19:59;7.10;;;5.75;;
35777;SDS011;21899;42.662;23.316;2024-03-17T13:22:26;8.02;;;5.18;;
35777;SDS011;21899;42.662;23.316;2024-03-17T13:24:51;7.80;;;5.63;;
35777;SDS011;21899;42.662;23.316;2024-03-17T13:27:17;7.85;;;6.20;;
35777;SDS011;21899;42.662;23.316;2024-03-17T13:29:43;6.10;;;4.70;;
35777;SDS011;21899;42.662;23.316;2024-03-17T13:32:12;7.82;;;6.00;;
35777;SDS011;21899;42.662;23.316;2024-03-17T13:34:38;8.70;;;4.80;;
35777;SDS011;21899;42.662;23.316;2024-03-17T13:37:03;9.38;;;5.80;;
35777;SDS011;21899;42.662;23.316;2024-03-17T13:39:32;8.68;;;6.75;;
35777;SDS011;21899;42.662;23.316;2024-03-17T13:41:58;7.00;;;5.70;;
35777;SDS011;21899;42.662;23.316;2024-03-17T13:46:57;7.30;;;5.25;;
35777;SDS011;21899;42.662;23.316;2024-03-17T13:49:24;8.90;;;5.80;;
35777;SDS011;21899;42.662;23.316;2024-03-17T13:51:51;9.63;;;6.22;;
35777;SDS011;21899;42.662;23.316;2024-03-17T13:54:17;9.38;;;6.47;;
35777;SDS011;21899;42.662;23.316;2024-03-17T13:56:46;12.77;;;6.70;;
35777;SDS011;21899;42.662;23.316;2024-03-17T13:59:12;10.73;;;5.72;;
35777;SDS011;21899;42.662;23.316;2024-03-17T14:01:39;8.05;;;5.35;;
35777;SDS011;21899;42.662;23.316;2024-03-17T14:04:07;8.65;;;6.15;;
35777;SDS011;21899;42.662;23.316;2024-03-17T14:06:38;8.32;;;4.93;;
35777;SDS011;21899;42.662;23.316;2024-03-17T14:09:03;9.90;;;5.93;;
35777;SDS011;21899;42.662;23.316;2024-03-17T14:11:30;12.90;;;6.80;;
35777;SDS011;21899;42.662;23.316;2024-03-17T14:13:57;10.05;;;6.57;;
35777;SDS011;21899;42.662;23.316;2024-03-17T14:16:23;9.77;;;6.40;;
35777;SDS011;21899;42.662;23.316;2024-03-17T14:18:49;7.43;;;5.90;;
35777;SDS011;21899;42.662;23.316;2024-03-17T14:21:15;10.02;;;6.35;;
35777;SDS011;21899;42.662;23.316;2024-03-17T14:23:41;10.18;;;6.35;;
35777;SDS011;21899;42.662;23.316;2024-03-17T14:26:08;7.22;;;5.32;;
35777;SDS011;21899;42.662;23.316;2024-03-17T14:28:35;9.75;;;6.25;;
35777;SDS011;21899;42.662;23.316;2024-03-17T14:31:01;8.75;;;6.50;;
35777;SDS011;21899;42.662;23.316;2024-03-17T14:33:27;8.13;;;5.97;;
35777;SDS011;21899;42.662;23.316;2024-03-17T14:35:56;8.13;;;5.97;;
35777;SDS011;21899;42.662;23.316;2024-03-17T14:38:22;12.55;;;7.32;;
35777;SDS011;21899;42.662;23.316;2024-03-17T14:40:51;9.10;;;6.85;;
35777;SDS011;21899;42.662;23.316;2024-03-17T14:43:16;8.00;;;6.22;;
35777;SDS011;21899;42.662;23.316;2024-03-17T14:45:42;9.68;;;6.82;;
35777;SDS011;21899;42.662;23.316;2024-03-17T14:48:08;11.55;;;7.35;;
35777;SDS011;21899;42.662;23.316;2024-03-17T14:50:41;8.13;;;6.22;;
35777;SDS011;21899;42.662;23.316;2024-03-17T14:53:07;9.70;;;6.30;;
35777;SDS011;21899;42.662;23.316;2024-03-17T14:55:32;9.73;;;6.30;;
35777;SDS011;21899;42.662;23.316;2024-03-17T14:57:58;11.98;;;7.20;;
35777;SDS011;21899;42.662;23.316;2024-03-17T15:00:27;10.30;;;7.07;;
35777;SDS011;21899;42.662;23.316;2024-03-17T15:02:55;11.70;;;7.38;;
35777;SDS011;21899;42.662;23.316;2024-03-17T15:05:21;10.88;;;7.07;;
35777;SDS011;21899;42.662;23.316;2024-03-17T15:07:48;9.60;;;6.88;;
35777;SDS011;21899;42.662;23.316;2024-03-17T15:10:14;9.82;;;8.00;;
35777;SDS011;21899;42.662;23.316;2024-03-17T15:12:40;10.27;;;6.90;;